sensor_id;sensor_type;location;lat;lon;timestamp;P1;durP1;ratioP1;P2;durP2;ratioP2
74670;SDS011;63196;39.564;2.628;2023-07-08T00:00:50;9.60;;;2.00;;
74670;SDS011;63196;39.564;2.628;2023-07-08T00:03:16;5.10;;;2.00;;
74670;SDS011;63196;39.564;2.628;2023-07-08T00:05:41;5.90;;;2.00;;
74670;SDS011;63196;39.564;2.628;2023-07-08T00:08:13;6.30;;;1.80;;
74670;SDS011;63196;39.564;2.628;2023-07-08T00:10:38;4.50;;;1.70;;
74670;SDS011;63196;39.564;2.628;2023-07-08T00:13:05;5.50;;;2.40;;
74670;SDS011;63196;39.564;2.628;2023-07-08T00:15:31;7.70;;;2.00;;
74670;SDS011;63196;39.564;2.628;2023-07-08T00:17:58;5.50;;;2.00;;
74670;SDS011;63196;39.564;2.628;2023-07-08T00:20:37;5.10;;;2.10;;
74670;SDS011;63196;39.564;2.628;2023-07-08T00:23:03;5.30;;;2.20;;
74670;SDS011;63196;39.564;2.628;2023-07-08T00:25:29;8.60;;;1.80;;
74670;SDS011;63196;39.564;2.628;2023-07-08T00:27:55;5.10;;;1.50;;
74670;SDS011;63196;39.564;2.628;2023-07-08T00:32:49;6.20;;;1.60;;
74670;SDS011;63196;39.564;2.628;2023-07-08T00:35:31;4.80;;;1.70;;
74670;SDS011;63196;39.564;2.628;2023-07-08T00:37:57;9.10;;;2.30;;
74670;SDS011;63196;39.564;2.628;2023-07-08T00:40:37;4.80;;;1.50;;
74670;SDS011;63196;39.564;2.628;2023-07-08T00:43:03;8.20;;;1.90;;
74670;SDS011;63196;39.564;2.628;2023-07-08T00:47:56;5.10;;;1.80;;
74670;SDS011;63196;39.564;2.628;2023-07-08T00:50:21;5.50;;;1.50;;
74670;SDS011;63196;39.564;2.628;2023-07-08T00:52:47;11.60;;;2.30;;
74670;SDS011;63196;39.564;2.628;2023-07-08T00:55:12;4.90;;;1.90;;
74670;SDS011;63196;39.564;2.628;2023-07-08T00:57:39;7.70;;;2.00;;
74670;SDS011;63196;39.564;2.628;2023-07-08T01:00:13;6.10;;;2.30;;
74670;SDS011;63196;39.564;2.628;2023-07-08T01:02:45;9.20;;;2.70;;
74670;SDS011;63196;39.564;2.628;2023-07-08T01:05:13;5.10;;;2.10;;
74670;SDS011;63196;39.564;2.628;2023-07-08T01:07:40;5.60;;;1.90;;
74670;SDS011;63196;39.564;2.628;2023-07-08T01:10:08;7.80;;;1.80;;
74670;SDS011;63196;39.564;2.628;2023-07-08T01:12:39;6.10;;;1.80;;
74670;SDS011;63196;39.564;2.628;2023-07-08T01:15:06;11.50;;;2.70;;
74670;SDS011;63196;39.564;2.628;2023-07-08T01:17:32;7.80;;;1.90;;
74670;SDS011;63196;39.564;2.628;2023-07-08T01:19:57;4.40;;;1.80;;
74670;SDS011;63196;39.564;2.628;2023-07-08T01:22:22;10.30;;;2.20;;
74670;SDS011;63196;39.564;2.628;2023-07-08T01:24:48;8.30;;;1.90;;
74670;SDS011;63196;39.564;2.628;2023-07-08T01:27:15;7.50;;;1.90;;
74670;SDS011;63196;39.564;2.628;2023-07-08T01:29:42;4.00;;;1.80;;
74670;SDS011;63196;39.564;2.628;2023-07-08T01:32:09;9.90;;;2.60;;
74670;SDS011;63196;39.564;2.628;2023-07-08T01:34:39;5.00;;;1.80;;
74670;SDS011;63196;39.564;2.628;2023-07-08T01:37:04;9.60;;;2.30;;
74670;SDS011;63196;39.564;2.628;2023-07-08T01:39:31;6.70;;;2.00;;
74670;SDS011;63196;39.564;2.628;2023-07-08T01:41:56;4.10;;;1.20;;
74670;SDS011;63196;39.564;2.628;2023-07-08T01:46:48;4.70;;;1.70;;
74670;SDS011;63196;39.564;2.628;2023-07-08T01:49:14;8.70;;;2.60;;
74670;SDS011;63196;39.564;2.628;2023-07-08T01:51:39;7.80;;;1.70;;
74670;SDS011;63196;39.564;2.628;2023-07-08T01:54:04;5.50;;;1.70;;
74670;SDS011;63196;39.564;2.628;2023-07-08T01:56:30;8.70;;;1.90;;
74670;SDS011;63196;39.564;2.628;2023-07-08T01:58:55;4.90;;;1.80;;
74670;SDS011;63196;39.564;2.628;2023-07-08T02:01:21;8.80;;;1.80;;
74670;SDS011;63196;39.564;2.628;2023-07-08T02:03:46;5.30;;;1.70;;
74670;SDS011;63196;39.564;2.628;2023-07-08T02:06:11;5.60;;;1.90;;
74670;SDS011;63196;39.564;2.628;2023-07-08T02:08:37;5.00;;;1.90;;
74670;SDS011;63196;39.564;2.628;2023-07-08T02:11:02;5.60;;;2.00;;
74670;SDS011;63196;39.564;2.628;2023-07-08T02:13:28;6.80;;;2.10;;
74670;SDS011;63196;39.564;2.628;2023-07-08T02:15:53;6.40;;;2.10;;
74670;SDS011;63196;39.564;2.628;2023-07-08T02:18:18;6.20;;;1.80;;
74670;SDS011;63196;39.564;2.628;2023-07-08T02:20:44;8.00;;;2.10;;
74670;SDS011;63196;39.564;2.628;2023-07-08T02:23:09;6.00;;;2.00;;
74670;SDS011;63196;39.564;2.628;2023-07-08T02:25:35;9.90;;;2.30;;
74670;SDS011;63196;39.564;2.628;2023-07-08T02:28:00;5.30;;;2.30;;
74670;SDS011;63196;39.564;2.628;2023-07-08T02:30:26;8.70;;;2.00;;
74670;SDS011;63196;39.564;2.628;2023-07-08T02:32:52;8.90;;;2.20;;
74670;SDS011;63196;39.564;2.628;2023-07-08T02:35:25;10.20;;;2.20;;
74670;SDS011;63196;39.564;2.628;2023-07-08T02:37:51;14.00;;;2.40;;
74670;SDS011;63196;39.564;2.628;2023-07-08T02:40:17;6.80;;;2.10;;
74670;SDS011;63196;39.564;2.628;2023-07-08T02:42:43;7.00;;;2.10;;
74670;SDS011;63196;39.564;2.628;2023-07-08T02:45:08;4.70;;;1.50;;
74670;SDS011;63196;39.564;2.628;2023-07-08T02:47:33;6.80;;;1.80;;
74670;SDS011;63196;39.564;2.628;2023-07-08T02:49:59;6.30;;;2.30;;
74670;SDS011;63196;39.564;2.628;2023-07-08T02:52:24;7.00;;;3.00;;
74670;SDS011;63196;39.564;2.628;2023-07-08T02:54:50;7.50;;;2.40;;
74670;SDS011;63196;39.564;2.628;2023-07-08T02:57:15;5.50;;;1.80;;
74670;SDS011;63196;39.564;2.628;2023-07-08T02:59:40;5.70;;;2.30;;
74670;SDS011;63196;39.564;2.628;2023-07-08T03:02:06;8.60;;;2.00;;
74670;SDS011;63196;39.564;2.628;2023-07-08T03:04:31;5.90;;;2.00;;
74670;SDS011;63196;39.564;2.628;2023-07-08T03:06:56;5.90;;;1.40;;
74670;SDS011;63196;39.564;2.628;2023-07-08T03:09:22;6.60;;;2.20;;
74670;SDS011;63196;39.564;2.628;2023-07-08T03:11:47;5.70;;;2.00;;
74670;SDS011;63196;39.564;2.628;2023-07-08T03:14:13;6.30;;;1.80;;
74670;SDS011;63196;39.564;2.628;2023-07-08T03:16:38;9.90;;;2.60;;
74670;SDS011;63196;39.564;2.628;2023-07-08T03:19:03;5.20;;;1.60;;
74670;SDS011;63196;39.564;2.628;2023-07-08T03:21:30;6.40;;;2.20;;
74670;SDS011;63196;39.564;2.628;2023-07-08T03:23:56;6.20;;;2.00;;
74670;SDS011;63196;39.564;2.628;2023-07-08T03:26:22;5.30;;;2.00;;
74670;SDS011;63196;39.564;2.628;2023-07-08T03:28:48;7.50;;;2.00;;
74670;SDS011;63196;39.564;2.628;2023-07-08T03:31:14;6.60;;;2.20;;
74670;SDS011;63196;39.564;2.628;2023-07-08T03:33:40;5.10;;;2.10;;
74670;SDS011;63196;39.564;2.628;2023-07-08T03:36:10;5.80;;;1.80;;
74670;SDS011;63196;39.564;2.628;2023-07-08T03:38:37;6.70;;;2.20;;
74670;SDS011;63196;39.564;2.628;2023-07-08T03:41:02;5.10;;;1.70;;
74670;SDS011;63196;39.564;2.628;2023-07-08T03:43:28;7.50;;;1.90;;
74670;SDS011;63196;39.564;2.628;2023-07-08T03:45:53;7.10;;;2.10;;
74670;SDS011;63196;39.564;2.628;2023-07-08T03:48:18;4.30;;;1.70;;
74670;SDS011;63196;39.564;2.628;2023-07-08T03:50:44;8.30;;;2.70;;
74670;SDS011;63196;39.564;2.628;2023-07-08T03:53:09;9.40;;;2.60;;
74670;SDS011;63196;39.564;2.628;2023-07-08T03:55:35;6.90;;;2.50;;
74670;SDS011;63196;39.564;2.628;2023-07-08T03:58:00;8.10;;;2.50;;
74670;SDS011;63196;39.564;2.628;2023-07-08T04:00:25;8.40;;;2.00;;
74670;SDS011;63196;39.564;2.628;2023-07-08T04:02:51;8.90;;;2.50;;
74670;SDS011;63196;39.564;2.628;2023-07-08T04:05:17;7.40;;;2.30;;
74670;SDS011;63196;39.564;2.628;2023-07-08T04:07:42;9.10;;;2.20;;
74670;SDS011;63196;39.564;2.628;2023-07-08T04:10:11;9.90;;;2.50;;
74670;SDS011;63196;39.564;2.628;2023-07-08T04:12:37;6.50;;;2.10;;
74670;SDS011;63196;39.564;2.628;2023-07-08T04:15:04;7.30;;;2.00;;
74670;SDS011;63196;39.564;2.628;2023-07-08T04:17:29;12.40;;;2.70;;
74670;SDS011;63196;39.564;2.628;2023-07-08T04:19:55;10.10;;;2.20;;
74670;SDS011;63196;39.564;2.628;2023-07-08T04:22:22;6.00;;;2.10;;
74670;SDS011;63196;39.564;2.628;2023-07-08T04:24:48;6.50;;;2.00;;
74670;SDS011;63196;39.564;2.628;2023-07-08T04:27:14;5.50;;;2.10;;
74670;SDS011;63196;39.564;2.628;2023-07-08T04:29:41;4.60;;;1.60;;
74670;SDS011;63196;39.564;2.628;2023-07-08T04:32:06;5.20;;;2.00;;
74670;SDS011;63196;39.564;2.628;2023-07-08T04:34:32;7.00;;;2.50;;
74670;SDS011;63196;39.564;2.628;2023-07-08T04:36:57;7.60;;;2.40;;
74670;SDS011;63196;39.564;2.628;2023-07-08T04:39:23;6.40;;;2.30;;
74670;SDS011;63196;39.564;2.628;2023-07-08T04:41:48;10.00;;;2.10;;
74670;SDS011;63196;39.564;2.628;2023-07-08T04:44:14;6.30;;;2.10;;
74670;SDS011;63196;39.564;2.628;2023-07-08T04:46:41;7.10;;;1.70;;
74670;SDS011;63196;39.564;2.628;2023-07-08T04:49:07;6.60;;;2.40;;
74670;SDS011;63196;39.564;2.628;2023-07-08T04:51:39;7.30;;;2.30;;
74670;SDS011;63196;39.564;2.628;2023-07-08T04:54:05;6.70;;;1.90;;
74670;SDS011;63196;39.564;2.628;2023-07-08T04:59:02;10.90;;;2.40;;
74670;SDS011;63196;39.564;2.628;2023-07-08T05:01:27;6.00;;;2.50;;
74670;SDS011;63196;39.564;2.628;2023-07-08T05:03:53;7.20;;;2.40;;
74670;SDS011;63196;39.564;2.628;2023-07-08T05:06:18;7.90;;;2.30;;
74670;SDS011;63196;39.564;2.628;2023-07-08T05:08:44;6.10;;;2.10;;
74670;SDS011;63196;39.564;2.628;2023-07-08T05:11:09;5.00;;;2.10;;
74670;SDS011;63196;39.564;2.628;2023-07-08T05:13:34;7.60;;;2.00;;
74670;SDS011;63196;39.564;2.628;2023-07-08T05:16:00;10.60;;;2.30;;
74670;SDS011;63196;39.564;2.628;2023-07-08T05:18:25;6.90;;;2.20;;
74670;SDS011;63196;39.564;2.628;2023-07-08T05:20:51;6.00;;;2.10;;
74670;SDS011;63196;39.564;2.628;2023-07-08T05:23:16;9.00;;;2.70;;
74670;SDS011;63196;39.564;2.628;2023-07-08T05:25:42;9.00;;;2.40;;
74670;SDS011;63196;39.564;2.628;2023-07-08T05:28:08;6.00;;;2.60;;
74670;SDS011;63196;39.564;2.628;2023-07-08T05:30:35;9.70;;;2.80;;
74670;SDS011;63196;39.564;2.628;2023-07-08T05:33:00;6.90;;;2.70;;
74670;SDS011;63196;39.564;2.628;2023-07-08T05:35:26;7.10;;;2.30;;
74670;SDS011;63196;39.564;2.628;2023-07-08T05:37:51;10.10;;;2.70;;
74670;SDS011;63196;39.564;2.628;2023-07-08T05:40:16;7.20;;;2.30;;
74670;SDS011;63196;39.564;2.628;2023-07-08T05:42:42;10.30;;;2.40;;
74670;SDS011;63196;39.564;2.628;2023-07-08T05:45:08;7.90;;;2.60;;
74670;SDS011;63196;39.564;2.628;2023-07-08T05:47:35;9.70;;;2.10;;
74670;SDS011;63196;39.564;2.628;2023-07-08T05:50:01;5.50;;;2.50;;
74670;SDS011;63196;39.564;2.628;2023-07-08T05:52:26;8.50;;;3.00;;
74670;SDS011;63196;39.564;2.628;2023-07-08T05:54:51;7.40;;;2.20;;
74670;SDS011;63196;39.564;2.628;2023-07-08T05:57:17;6.10;;;2.40;;
74670;SDS011;63196;39.564;2.628;2023-07-08T05:59:42;7.60;;;2.70;;
74670;SDS011;63196;39.564;2.628;2023-07-08T06:02:11;7.90;;;2.40;;
74670;SDS011;63196;39.564;2.628;2023-07-08T06:04:37;6.50;;;2.10;;
74670;SDS011;63196;39.564;2.628;2023-07-08T06:07:03;7.50;;;2.00;;
74670;SDS011;63196;39.564;2.628;2023-07-08T06:09:28;6.30;;;1.80;;
74670;SDS011;63196;39.564;2.628;2023-07-08T06:11:54;6.50;;;2.50;;
74670;SDS011;63196;39.564;2.628;2023-07-08T06:14:19;7.80;;;3.20;;
74670;SDS011;63196;39.564;2.628;2023-07-08T06:16:44;8.70;;;2.20;;
74670;SDS011;63196;39.564;2.628;2023-07-08T06:19:10;7.00;;;2.10;;
74670;SDS011;63196;39.564;2.628;2023-07-08T06:21:35;5.50;;;2.10;;
74670;SDS011;63196;39.564;2.628;2023-07-08T06:24:01;8.80;;;2.50;;
74670;SDS011;63196;39.564;2.628;2023-07-08T06:26:26;8.50;;;2.40;;
74670;SDS011;63196;39.564;2.628;2023-07-08T06:28:52;7.30;;;3.10;;
74670;SDS011;63196;39.564;2.628;2023-07-08T06:31:17;15.30;;;3.20;;
74670;SDS011;63196;39.564;2.628;2023-07-08T06:33:42;5.50;;;2.20;;
74670;SDS011;63196;39.564;2.628;2023-07-08T06:36:08;5.60;;;1.90;;
74670;SDS011;63196;39.564;2.628;2023-07-08T06:38:34;6.70;;;2.70;;
74670;SDS011;63196;39.564;2.628;2023-07-08T06:40:59;5.40;;;2.10;;
74670;SDS011;63196;39.564;2.628;2023-07-08T06:43:24;9.90;;;2.60;;
74670;SDS011;63196;39.564;2.628;2023-07-08T06:45:50;8.90;;;3.00;;
74670;SDS011;63196;39.564;2.628;2023-07-08T06:48:16;13.80;;;2.70;;
74670;SDS011;63196;39.564;2.628;2023-07-08T06:50:48;9.10;;;2.70;;
74670;SDS011;63196;39.564;2.628;2023-07-08T06:53:14;6.90;;;3.10;;
74670;SDS011;63196;39.564;2.628;2023-07-08T06:55:39;9.30;;;2.70;;
74670;SDS011;63196;39.564;2.628;2023-07-08T06:58:05;8.30;;;2.70;;
74670;SDS011;63196;39.564;2.628;2023-07-08T07:00:30;5.80;;;2.90;;
74670;SDS011;63196;39.564;2.628;2023-07-08T07:02:56;8.80;;;2.30;;
74670;SDS011;63196;39.564;2.628;2023-07-08T07:05:21;10.00;;;3.10;;
74670;SDS011;63196;39.564;2.628;2023-07-08T07:07:46;8.00;;;3.10;;
74670;SDS011;63196;39.564;2.628;2023-07-08T07:10:13;8.90;;;3.00;;
74670;SDS011;63196;39.564;2.628;2023-07-08T07:12:38;6.40;;;2.00;;
74670;SDS011;63196;39.564;2.628;2023-07-08T07:15:04;10.80;;;3.00;;
74670;SDS011;63196;39.564;2.628;2023-07-08T07:17:29;11.70;;;2.90;;
74670;SDS011;63196;39.564;2.628;2023-07-08T07:19:55;5.60;;;2.20;;
74670;SDS011;63196;39.564;2.628;2023-07-08T07:22:20;12.90;;;3.40;;
74670;SDS011;63196;39.564;2.628;2023-07-08T07:24:46;8.80;;;2.70;;
74670;SDS011;63196;39.564;2.628;2023-07-08T07:27:11;8.70;;;3.00;;
74670;SDS011;63196;39.564;2.628;2023-07-08T07:29:44;8.20;;;2.70;;
74670;SDS011;63196;39.564;2.628;2023-07-08T07:32:10;7.70;;;2.70;;
74670;SDS011;63196;39.564;2.628;2023-07-08T07:34:35;12.50;;;3.40;;
74670;SDS011;63196;39.564;2.628;2023-07-08T07:37:01;7.40;;;2.50;;
74670;SDS011;63196;39.564;2.628;2023-07-08T07:39:26;10.00;;;2.40;;
74670;SDS011;63196;39.564;2.628;2023-07-08T07:41:53;7.80;;;2.50;;
74670;SDS011;63196;39.564;2.628;2023-07-08T07:44:19;11.00;;;2.90;;
74670;SDS011;63196;39.564;2.628;2023-07-08T07:46:44;10.40;;;3.20;;
74670;SDS011;63196;39.564;2.628;2023-07-08T07:49:09;7.70;;;2.90;;
74670;SDS011;63196;39.564;2.628;2023-07-08T07:51:35;8.70;;;3.10;;
74670;SDS011;63196;39.564;2.628;2023-07-08T07:54:02;9.20;;;3.00;;
74670;SDS011;63196;39.564;2.628;2023-07-08T07:56:27;8.50;;;2.70;;
74670;SDS011;63196;39.564;2.628;2023-07-08T07:58:53;7.30;;;2.80;;
74670;SDS011;63196;39.564;2.628;2023-07-08T08:01:18;7.00;;;2.80;;
74670;SDS011;63196;39.564;2.628;2023-07-08T08:03:45;9.70;;;3.20;;
74670;SDS011;63196;39.564;2.628;2023-07-08T08:06:10;7.80;;;2.50;;
74670;SDS011;63196;39.564;2.628;2023-07-08T08:08:35;7.10;;;2.70;;
74670;SDS011;63196;39.564;2.628;2023-07-08T08:11:01;7.20;;;2.90;;
74670;SDS011;63196;39.564;2.628;2023-07-08T08:13:26;8.60;;;2.30;;
74670;SDS011;63196;39.564;2.628;2023-07-08T08:15:55;10.80;;;4.30;;
74670;SDS011;63196;39.564;2.628;2023-07-08T08:18:22;7.20;;;3.70;;
74670;SDS011;63196;39.564;2.628;2023-07-08T08:20:49;12.70;;;4.00;;
74670;SDS011;63196;39.564;2.628;2023-07-08T08:23:15;9.20;;;3.70;;
74670;SDS011;63196;39.564;2.628;2023-07-08T08:25:40;6.90;;;2.70;;
74670;SDS011;63196;39.564;2.628;2023-07-08T08:28:05;5.80;;;2.90;;
74670;SDS011;63196;39.564;2.628;2023-07-08T08:30:31;7.50;;;3.30;;
74670;SDS011;63196;39.564;2.628;2023-07-08T08:32:56;8.70;;;3.10;;
74670;SDS011;63196;39.564;2.628;2023-07-08T08:35:25;6.50;;;2.90;;
74670;SDS011;63196;39.564;2.628;2023-07-08T08:37:54;6.60;;;2.90;;
74670;SDS011;63196;39.564;2.628;2023-07-08T08:40:19;10.60;;;3.80;;
74670;SDS011;63196;39.564;2.628;2023-07-08T08:42:51;9.70;;;4.00;;
74670;SDS011;63196;39.564;2.628;2023-07-08T08:45:19;10.10;;;3.40;;
74670;SDS011;63196;39.564;2.628;2023-07-08T08:50:23;7.50;;;3.00;;
74670;SDS011;63196;39.564;2.628;2023-07-08T08:55:16;5.90;;;2.70;;
74670;SDS011;63196;39.564;2.628;2023-07-08T08:57:43;8.40;;;2.70;;
74670;SDS011;63196;39.564;2.628;2023-07-08T09:00:11;7.80;;;2.80;;
74670;SDS011;63196;39.564;2.628;2023-07-08T09:02:51;8.10;;;2.90;;
